createdAt,value
2023-11-03T00:01:16.529Z,13.28
2023-11-03T00:03:43.452Z,13.34
2023-11-03T00:06:10.329Z,13.43
2023-11-03T00:08:37.077Z,13.47
2023-11-03T00:11:04.533Z,13.49
2023-11-03T00:13:32.201Z,13.51
2023-11-03T00:15:58.982Z,13.55
2023-11-03T00:18:25.822Z,13.55
2023-11-03T00:20:52.546Z,13.54
2023-11-03T00:23:19.293Z,13.51
2023-11-03T00:25:46.037Z,13.50
2023-11-03T00:28:12.792Z,13.48
2023-11-03T00:30:39.568Z,13.43
2023-11-03T00:33:06.829Z,13.42
2023-11-03T00:35:35.139Z,13.41
2023-11-03T00:38:01.952Z,13.39
2023-11-03T00:40:29.113Z,13.37
2023-11-03T00:42:56.116Z,13.39
2023-11-03T00:45:22.914Z,13.41
2023-11-03T00:47:50.038Z,13.40
2023-11-03T00:50:17.028Z,13.42
2023-11-03T00:52:43.880Z,13.51
2023-11-03T00:55:10.671Z,13.59
2023-11-03T00:57:37.460Z,13.62
2023-11-03T01:00:05.061Z,13.58
2023-11-03T01:02:31.829Z,13.56
2023-11-03T01:04:58.635Z,13.50
2023-11-03T01:07:25.511Z,13.43
2023-11-03T01:09:52.248Z,13.37
2023-11-03T01:12:19.191Z,13.35
2023-11-03T01:14:45.960Z,13.32
2023-11-03T01:17:13.144Z,13.26
2023-11-03T01:19:39.831Z,13.19
2023-11-03T01:22:06.726Z,13.13
2023-11-03T01:24:33.552Z,13.06
2023-11-03T01:27:00.236Z,13.01
2023-11-03T01:29:26.966Z,12.97
2023-11-03T01:31:53.702Z,12.94
2023-11-03T01:34:20.451Z,12.95
2023-11-03T01:36:47.211Z,13.00
2023-11-03T01:39:14.349Z,12.98
2023-11-03T01:41:40.999Z,12.88
2023-11-03T01:44:09.408Z,12.80
2023-11-03T01:46:40.608Z,12.70
2023-11-03T01:49:09.056Z,12.59
2023-11-03T01:51:36.765Z,12.48
2023-11-03T01:54:05.327Z,12.40
2023-11-03T01:56:33.895Z,12.35
2023-11-03T01:59:06.111Z,12.29
2023-11-03T02:01:33.625Z,12.26
2023-11-03T02:04:00.569Z,12.24
2023-11-03T02:06:27.640Z,12.23
2023-11-03T02:08:55.065Z,12.25
2023-11-03T02:11:29.431Z,12.32
2023-11-03T02:13:57.215Z,12.42
2023-11-03T02:16:24.831Z,12.50
2023-11-03T02:18:51.781Z,12.49
2023-11-03T02:21:19.003Z,12.48
2023-11-03T02:23:45.771Z,12.53
2023-11-03T02:26:12.402Z,12.54
2023-11-03T02:28:39.360Z,12.54
2023-11-03T02:31:06.272Z,12.56
2023-11-03T02:33:33.054Z,12.56
2023-11-03T02:35:59.896Z,12.55
2023-11-03T02:38:26.659Z,12.56
2023-11-03T02:40:53.394Z,12.60
2023-11-03T02:43:20.176Z,12.59
2023-11-03T02:45:46.914Z,12.59
2023-11-03T02:48:13.661Z,12.61
2023-11-03T02:50:40.612Z,12.65
2023-11-03T02:53:07.340Z,12.66
2023-11-03T02:55:34.099Z,12.65
2023-11-03T02:58:00.864Z,12.65
2023-11-03T03:00:27.716Z,12.64
2023-11-03T03:02:54.873Z,12.63
2023-11-03T03:05:21.684Z,12.61
2023-11-03T03:07:48.493Z,12.58
2023-11-03T03:10:15.708Z,12.55
2023-11-03T03:12:42.685Z,12.55
2023-11-03T03:15:10.880Z,12.53
2023-11-03T03:17:37.533Z,12.53
2023-11-03T03:20:04.944Z,12.52
2023-11-03T03:22:31.576Z,12.49
2023-11-03T03:24:58.378Z,12.46
2023-11-03T03:27:25.221Z,12.44
2023-11-03T03:29:52.250Z,12.43
2023-11-03T03:32:19.141Z,12.42
2023-11-03T03:34:46.049Z,12.41
2023-11-03T03:37:12.763Z,12.42
2023-11-03T03:39:39.778Z,12.42
2023-11-03T03:42:07.380Z,12.44
2023-11-03T03:44:34.449Z,12.51
2023-11-03T03:47:01.303Z,12.58
2023-11-03T03:49:28.040Z,12.65
2023-11-03T03:51:54.801Z,12.70
2023-11-03T03:54:21.534Z,12.69
2023-11-03T03:56:48.384Z,12.68
2023-11-03T03:59:15.434Z,12.66
2023-11-03T04:01:45.554Z,12.67
2023-11-03T04:04:12.353Z,12.70
2023-11-03T04:06:39.291Z,12.75
2023-11-03T04:09:06.643Z,12.75
2023-11-03T04:11:33.584Z,12.73
2023-11-03T04:14:00.416Z,12.73
2023-11-03T04:16:37.403Z,12.75
2023-11-03T04:19:05.064Z,12.70
2023-11-03T04:21:31.990Z,12.67
2023-11-03T04:23:58.772Z,12.62
2023-11-03T04:26:26.235Z,12.57
2023-11-03T04:28:53.712Z,12.51
2023-11-03T04:31:20.632Z,12.51
2023-11-03T04:33:47.880Z,12.49
2023-11-03T04:36:14.762Z,12.45
2023-11-03T04:38:41.922Z,12.42
2023-11-03T04:41:08.674Z,12.39
2023-11-03T04:43:35.324Z,12.33
2023-11-03T04:46:02.515Z,12.29
2023-11-03T04:48:29.237Z,12.27
2023-11-03T04:50:55.979Z,12.29
2023-11-03T04:53:22.727Z,12.35
2023-11-03T04:55:49.462Z,12.39
2023-11-03T04:58:17.485Z,12.38
2023-11-03T05:00:44.626Z,12.35
2023-11-03T05:03:11.550Z,12.32
2023-11-03T05:05:38.859Z,12.29
2023-11-03T05:08:05.858Z,12.25
2023-11-03T05:10:32.603Z,12.20
2023-11-03T05:12:59.266Z,12.15
2023-11-03T05:15:25.984Z,12.10
2023-11-03T05:17:52.795Z,12.06
2023-11-03T05:20:20.922Z,12.01
2023-11-03T05:22:48.001Z,11.97
2023-11-03T05:25:15.142Z,11.97
2023-11-03T05:27:42.255Z,11.97
2023-11-03T05:30:09.770Z,11.99
2023-11-03T05:32:37.250Z,11.99
2023-11-03T05:35:04.257Z,12.04
2023-11-03T05:37:31.115Z,12.10
2023-11-03T05:39:57.894Z,12.16
2023-11-03T05:42:24.900Z,12.20
2023-11-03T05:44:51.546Z,12.23
2023-11-03T05:47:18.291Z,12.24
2023-11-03T05:49:45.090Z,12.25
2023-11-03T05:52:11.985Z,12.31
2023-11-03T05:54:38.840Z,12.39
2023-11-03T05:57:05.801Z,12.43
2023-11-03T05:59:32.541Z,12.47
2023-11-03T06:01:59.188Z,12.47
2023-11-03T06:04:25.857Z,12.47
2023-11-03T06:06:52.719Z,12.44
2023-11-03T06:09:19.424Z,12.42
2023-11-03T06:11:46.260Z,12.45
2023-11-03T06:14:13.243Z,12.46
2023-11-03T06:16:39.873Z,12.42
2023-11-03T06:19:07.016Z,12.41
2023-11-03T06:21:33.902Z,12.47
2023-11-03T06:24:00.631Z,12.50
2023-11-03T06:26:27.279Z,12.50
2023-11-03T06:28:54.240Z,12.48
2023-11-03T06:31:21.095Z,12.47
2023-11-03T06:33:48.130Z,12.53
2023-11-03T06:36:15.181Z,12.60
2023-11-03T06:38:42.164Z,12.65
2023-11-03T06:41:11.495Z,12.70
2023-11-03T06:43:38.625Z,12.73
2023-11-03T06:46:05.407Z,12.78
2023-11-03T06:48:32.347Z,12.84
2023-11-03T06:50:59.233Z,12.89
2023-11-03T06:53:26.222Z,12.91
2023-11-03T06:55:52.898Z,12.99
2023-11-03T06:58:19.688Z,13.03
2023-11-03T07:00:46.397Z,13.07
2023-11-03T07:03:13.330Z,13.12
2023-11-03T07:05:40.229Z,13.16
2023-11-03T07:08:07.430Z,13.17
2023-11-03T07:10:34.176Z,13.17
2023-11-03T07:13:01.167Z,13.17
2023-11-03T07:15:28.016Z,13.16
2023-11-03T07:17:54.730Z,13.14
2023-11-03T07:20:21.503Z,13.13
2023-11-03T07:22:48.157Z,13.19
2023-11-03T07:25:14.931Z,13.40
2023-11-03T07:27:41.813Z,13.53
2023-11-03T07:30:09.452Z,13.64
2023-11-03T07:32:36.409Z,13.70
2023-11-03T07:35:03.410Z,13.79
2023-11-03T07:37:30.138Z,13.87
2023-11-03T07:39:56.966Z,13.98
2023-11-03T07:42:23.933Z,14.08
2023-11-03T07:44:50.707Z,14.15
2023-11-03T07:47:17.468Z,14.22
2023-11-03T07:49:44.396Z,14.18
2023-11-03T07:52:11.259Z,14.18
2023-11-03T07:54:38.297Z,14.29
2023-11-03T07:57:05.499Z,14.32
2023-11-03T07:59:32.405Z,14.22
2023-11-03T08:01:59.254Z,14.27
2023-11-03T08:04:25.971Z,14.37
2023-11-03T08:06:52.956Z,14.44
2023-11-03T08:09:19.523Z,14.48
2023-11-03T08:11:46.088Z,14.52
2023-11-03T08:14:12.783Z,14.42
2023-11-03T08:16:45.528Z,14.42
2023-11-03T08:19:13.078Z,14.56
2023-11-03T08:21:40.267Z,14.60
2023-11-03T08:24:07.221Z,14.66
2023-11-03T08:26:33.941Z,14.60
2023-11-03T08:29:00.598Z,14.55
2023-11-03T08:31:28.023Z,14.70
2023-11-03T08:33:54.793Z,14.87
2023-11-03T08:36:21.782Z,15.00
2023-11-03T08:38:49.051Z,15.10
2023-11-03T08:41:15.804Z,15.05
2023-11-03T08:43:45.114Z,15.15
2023-11-03T08:46:11.882Z,15.33
2023-11-03T08:48:41.749Z,15.45
2023-11-03T08:51:10.230Z,15.49
2023-11-03T08:53:37.331Z,15.36
2023-11-03T08:56:04.337Z,15.40
2023-11-03T08:58:31.015Z,15.55
2023-11-03T09:01:01.042Z,15.59
2023-11-03T09:03:29.924Z,15.61
2023-11-03T09:05:56.989Z,15.50
2023-11-03T09:08:23.834Z,15.42
2023-11-03T09:10:50.696Z,15.48
2023-11-03T09:13:23.620Z,15.52
2023-11-03T09:15:52.249Z,15.51
2023-11-03T09:18:20.846Z,15.43
2023-11-03T09:20:47.818Z,15.50
2023-11-03T09:23:14.928Z,15.68
2023-11-03T09:25:41.997Z,15.76
2023-11-03T09:28:08.942Z,15.67
2023-11-03T09:30:35.852Z,15.67
2023-11-03T09:33:03.206Z,15.73
2023-11-03T09:35:30.140Z,15.74
2023-11-03T09:37:56.763Z,15.63
2023-11-03T09:40:23.934Z,15.59
2023-11-03T09:42:51.488Z,15.67
2023-11-03T09:45:22.393Z,15.69
2023-11-03T09:47:53.158Z,15.55
2023-11-03T09:50:22.684Z,15.43
2023-11-03T09:52:52.822Z,15.50
2023-11-03T09:55:21.578Z,15.60
2023-11-03T09:57:49.860Z,15.65
2023-11-03T10:00:17.527Z,15.61
2023-11-03T10:02:44.799Z,15.57
2023-11-03T10:05:18.882Z,15.60
2023-11-03T10:08:04.059Z,15.49
2023-11-03T10:10:32.952Z,15.43
2023-11-03T10:12:59.782Z,15.55
2023-11-03T10:15:27.411Z,15.62
2023-11-03T10:17:55.279Z,15.56
2023-11-03T10:20:22.433Z,15.56
2023-11-03T10:22:49.868Z,15.70
2023-11-03T10:25:17.613Z,15.71
2023-11-03T10:27:49.198Z,15.55
2023-11-03T10:30:17.701Z,15.42
2023-11-03T10:32:45.973Z,15.32
2023-11-03T10:35:14.994Z,15.26
2023-11-03T10:37:43.139Z,15.24
2023-11-03T10:40:11.229Z,15.33
2023-11-03T10:42:47.984Z,15.47
2023-11-03T10:45:16.010Z,15.65
2023-11-03T10:47:53.812Z,15.81
2023-11-03T10:50:22.550Z,16.03
2023-11-03T10:53:14.428Z,16.10
2023-11-03T10:56:22.482Z,16.11
2023-11-03T10:58:55.269Z,16.00
2023-11-03T11:02:00.536Z,15.92
2023-11-03T11:04:34.634Z,15.78
2023-11-03T11:07:09.057Z,15.68
2023-11-03T11:09:47.372Z,15.61
2023-11-03T11:12:15.194Z,15.57
2023-11-03T11:14:43.822Z,15.55
2023-11-03T11:17:16.708Z,15.50
2023-11-03T11:19:46.518Z,15.41
2023-11-03T11:22:20.775Z,15.34
2023-11-03T11:24:48.172Z,15.30
2023-11-03T11:27:16.737Z,15.30
2023-11-03T11:29:43.833Z,15.23
2023-11-03T11:32:12.477Z,15.12
2023-11-03T11:34:42.162Z,15.02
2023-11-03T11:37:29.448Z,14.97
2023-11-03T11:39:58.550Z,14.98
2023-11-03T11:42:30.750Z,15.03
2023-11-03T11:44:58.295Z,15.06
2023-11-03T11:47:26.770Z,15.05
2023-11-03T11:49:55.140Z,14.96
2023-11-03T11:52:28.741Z,14.85
2023-11-03T11:54:57.727Z,14.76
2023-11-03T11:57:27.667Z,14.66
2023-11-03T11:59:56.061Z,14.60
2023-11-03T12:02:24.215Z,14.58
2023-11-03T12:04:52.243Z,14.56
2023-11-03T12:07:23.116Z,14.57
2023-11-03T12:09:54.484Z,14.57
2023-11-03T12:12:25.945Z,14.54
2023-11-03T12:14:54.008Z,14.45
2023-11-03T12:17:21.569Z,14.37
2023-11-03T12:19:49.713Z,14.32
2023-11-03T12:22:26.576Z,14.30
2023-11-03T12:24:56.857Z,14.33
2023-11-03T12:27:25.294Z,14.41
2023-11-03T12:29:52.619Z,14.55
2023-11-03T12:32:19.665Z,14.70
2023-11-03T12:34:46.694Z,14.85
2023-11-03T12:37:14.685Z,15.03
2023-11-03T12:39:55.147Z,15.12
2023-11-03T12:42:23.736Z,15.14
2023-11-03T12:44:58.533Z,15.24
2023-11-03T12:47:46.000Z,15.37
2023-11-03T12:50:20.281Z,15.48
2023-11-03T12:53:02.774Z,15.53
2023-11-03T12:55:31.811Z,15.47
2023-11-03T12:58:00.192Z,15.38
2023-11-03T13:00:28.627Z,15.23
2023-11-03T13:02:55.621Z,15.06
2023-11-03T13:05:23.984Z,14.90
2023-11-03T13:07:53.013Z,14.74
2023-11-03T13:10:20.867Z,14.62
2023-11-03T13:12:48.318Z,14.57
2023-11-03T13:15:15.136Z,14.51
2023-11-03T13:17:42.527Z,14.47
2023-11-03T13:20:11.585Z,14.43
2023-11-03T13:22:38.651Z,14.40
2023-11-03T13:25:05.844Z,14.42
2023-11-03T13:27:32.450Z,14.45
2023-11-03T13:29:59.272Z,14.48
2023-11-03T13:32:26.043Z,14.54
2023-11-03T13:34:52.744Z,14.56
2023-11-03T13:37:19.753Z,14.57
2023-11-03T13:39:46.496Z,14.54
2023-11-03T13:42:13.436Z,14.53
2023-11-03T13:44:41.570Z,14.50
2023-11-03T13:47:08.497Z,14.48
2023-11-03T13:49:36.084Z,14.49
2023-11-03T13:52:03.315Z,14.48
2023-11-03T13:54:30.061Z,14.50
2023-11-03T13:56:56.841Z,14.49
2023-11-03T13:59:23.572Z,14.49
2023-11-03T14:01:50.616Z,14.50
2023-11-03T14:04:17.694Z,14.49
2023-11-03T14:06:44.424Z,14.40
2023-11-03T14:09:16.593Z,14.27
2023-11-03T14:11:44.251Z,14.11
2023-11-03T14:14:11.022Z,13.97
2023-11-03T14:16:37.910Z,13.83
2023-11-03T14:19:04.780Z,13.72
2023-11-03T14:21:31.856Z,13.64
2023-11-03T14:23:58.594Z,13.55
2023-11-03T14:26:25.584Z,13.48
2023-11-03T14:28:54.689Z,13.40
2023-11-03T14:31:21.920Z,13.37
2023-11-03T14:33:48.965Z,13.34
2023-11-03T14:36:15.804Z,13.33
2023-11-03T14:38:42.658Z,13.30
2023-11-03T14:41:09.559Z,13.27
2023-11-03T14:43:36.567Z,13.24
2023-11-03T14:46:03.767Z,13.21
2023-11-03T14:48:30.700Z,13.21
2023-11-03T14:50:58.277Z,13.20
2023-11-03T14:53:26.013Z,13.23
2023-11-03T14:55:52.973Z,13.37
2023-11-03T14:58:20.401Z,13.46
2023-11-03T15:00:47.271Z,13.53
2023-11-03T15:03:14.573Z,13.58
2023-11-03T15:05:41.619Z,13.61
2023-11-03T15:08:08.913Z,13.64
2023-11-03T15:10:39.427Z,13.68
2023-11-03T15:13:06.727Z,13.72
2023-11-03T15:15:33.942Z,13.76
2023-11-03T15:18:02.341Z,13.77
2023-11-03T15:20:29.352Z,13.77
2023-11-03T15:22:58.008Z,13.78
2023-11-03T15:25:25.239Z,13.78
2023-11-03T15:27:52.327Z,13.79
2023-11-03T15:30:20.397Z,13.79
2023-11-03T15:32:48.633Z,13.80
2023-11-03T15:35:17.231Z,13.81
2023-11-03T15:37:45.199Z,13.81
2023-11-03T15:40:14.101Z,13.78
2023-11-03T15:42:41.134Z,13.75
2023-11-03T15:45:09.081Z,13.74
2023-11-03T15:47:35.885Z,13.72
2023-11-03T15:50:03.054Z,13.71
2023-11-03T15:52:30.129Z,13.77
2023-11-03T15:54:57.100Z,13.83
2023-11-03T15:57:26.398Z,13.89
2023-11-03T15:59:53.766Z,13.90
2023-11-03T16:02:20.649Z,13.92
2023-11-03T16:04:48.338Z,13.95
2023-11-03T16:07:15.669Z,13.99
2023-11-03T16:09:42.941Z,14.01
2023-11-03T16:12:10.414Z,14.03
2023-11-03T16:14:37.741Z,14.04
2023-11-03T16:17:05.543Z,14.08
2023-11-03T16:19:33.427Z,14.08
2023-11-03T16:22:00.890Z,14.09
2023-11-03T16:24:28.037Z,14.07
2023-11-03T16:26:55.026Z,14.06
2023-11-03T16:29:25.030Z,14.03
2023-11-03T16:31:52.674Z,14.06
2023-11-03T16:34:19.954Z,14.06
2023-11-03T16:36:46.841Z,14.06
2023-11-03T16:39:14.256Z,14.02
2023-11-03T16:41:40.937Z,13.99
2023-11-03T16:44:10.100Z,13.94
2023-11-03T16:46:37.824Z,13.88
2023-11-03T16:49:06.079Z,13.83
2023-11-03T16:51:33.426Z,13.78
2023-11-03T16:54:00.880Z,13.75
2023-11-03T16:56:31.088Z,13.75
2023-11-03T16:58:58.495Z,13.79
2023-11-03T17:01:25.467Z,13.84
2023-11-03T17:03:52.654Z,13.91
2023-11-03T17:06:19.590Z,13.92
2023-11-03T17:08:47.149Z,13.91
2023-11-03T17:11:14.226Z,13.87
2023-11-03T17:13:44.651Z,13.82
2023-11-03T17:16:11.845Z,13.74
2023-11-03T17:18:39.729Z,13.64
2023-11-03T17:21:06.506Z,13.55
2023-11-03T17:23:34.527Z,13.50
2023-11-03T17:26:03.996Z,13.48
2023-11-03T17:28:30.685Z,13.45
2023-11-03T17:30:57.944Z,13.43
2023-11-03T17:33:24.964Z,13.43
2023-11-03T17:35:52.191Z,13.46
2023-11-03T17:38:18.872Z,13.42
2023-11-03T17:40:45.716Z,13.38
2023-11-03T17:43:13.093Z,13.40
2023-11-03T17:45:42.138Z,13.39
2023-11-03T17:48:09.634Z,13.40
2023-11-03T17:50:36.938Z,13.41
2023-11-03T17:53:03.561Z,13.41
2023-11-03T17:55:31.317Z,13.41
2023-11-03T17:57:58.202Z,13.40
2023-11-03T18:00:25.338Z,13.38
2023-11-03T18:02:53.694Z,13.33
2023-11-03T18:05:20.627Z,13.30
2023-11-03T18:07:47.716Z,13.33
2023-11-03T18:10:15.674Z,13.36
2023-11-03T18:12:42.779Z,13.36
2023-11-03T18:15:11.362Z,13.36
2023-11-03T18:17:39.166Z,13.36
2023-11-03T18:20:09.792Z,13.34
2023-11-03T18:22:36.830Z,13.30
2023-11-03T18:25:04.185Z,13.28
2023-11-03T18:27:30.915Z,13.21
2023-11-03T18:29:57.579Z,13.20
2023-11-03T18:32:24.319Z,13.13
2023-11-03T18:34:51.030Z,13.09
2023-11-03T18:37:17.857Z,13.09
2023-11-03T18:39:44.855Z,13.12
2023-11-03T18:42:12.017Z,13.09
2023-11-03T18:44:39.777Z,13.07
2023-11-03T18:47:06.759Z,13.03
2023-11-03T18:52:03.044Z,13.02
2023-11-03T18:58:14.876Z,12.98
2023-11-03T19:04:22.207Z,12.87
2023-11-03T19:06:47.803Z,12.83
2023-11-03T19:07:52.840Z,12.83
2023-11-03T19:10:21.839Z,12.83
2023-11-03T19:12:48.617Z,12.84
2023-11-03T19:15:15.587Z,12.82
2023-11-03T19:17:42.436Z,12.77
2023-11-03T19:20:10.254Z,12.75
2023-11-03T19:22:38.308Z,12.72
2023-11-03T19:25:07.726Z,12.69
2023-11-03T19:27:35.404Z,12.65
2023-11-03T19:30:02.639Z,12.67
2023-11-03T19:32:30.407Z,12.66
2023-11-03T19:34:58.169Z,12.65
2023-11-03T19:37:26.415Z,12.67
2023-11-03T19:39:54.001Z,12.62
2023-11-03T19:42:20.868Z,12.55
2023-11-03T19:44:50.869Z,12.49
2023-11-03T19:47:18.214Z,12.50
2023-11-03T19:49:45.443Z,12.49
2023-11-03T19:52:12.538Z,12.47
2023-11-03T19:54:40.267Z,12.45
2023-11-03T19:57:07.408Z,12.40
2023-11-03T19:59:34.189Z,12.37
2023-11-03T20:02:01.756Z,12.39
2023-11-03T20:04:28.533Z,12.36
2023-11-03T20:06:57.560Z,12.32
2023-11-03T20:09:24.546Z,12.34
2023-11-03T20:11:51.543Z,12.34
2023-11-03T20:14:18.503Z,12.29
2023-11-03T20:16:45.404Z,12.28
2023-11-03T20:19:14.679Z,12.29
2023-11-03T20:21:41.901Z,12.26
2023-11-03T20:24:09.585Z,12.25
2023-11-03T20:26:36.767Z,12.23
2023-11-03T20:29:03.546Z,12.20
2023-11-03T20:31:30.307Z,12.19
2023-11-03T20:33:57.094Z,12.20
2023-11-03T20:36:24.338Z,12.20
2023-11-03T20:38:51.159Z,12.17
2023-11-03T20:41:18.238Z,12.16
2023-11-03T20:43:44.948Z,12.17
2023-11-03T20:46:14.380Z,12.15
2023-11-03T20:48:41.486Z,12.18
2023-11-03T20:51:09.088Z,12.19
2023-11-03T20:53:36.977Z,12.17
2023-11-03T20:56:04.856Z,12.21
2023-11-03T20:58:31.612Z,12.25
2023-11-03T21:00:58.360Z,12.25
2023-11-03T21:03:25.398Z,12.20
2023-11-03T21:05:52.536Z,12.19
2023-11-03T21:08:19.302Z,12.17
2023-11-03T21:10:46.139Z,12.12
2023-11-03T21:13:12.786Z,12.05
2023-11-03T21:15:39.579Z,12.01
2023-11-03T21:18:06.930Z,12.01
2023-11-03T21:20:33.952Z,11.93
2023-11-03T21:23:00.827Z,11.90
2023-11-03T21:25:27.440Z,11.85
2023-11-03T21:27:55.684Z,11.82
2023-11-03T21:30:22.424Z,11.82
2023-11-03T21:32:50.348Z,11.77
2023-11-03T21:35:17.152Z,11.74
2023-11-03T21:37:43.937Z,11.76
2023-11-03T21:40:11.264Z,11.77
2023-11-03T21:42:37.883Z,11.76
2023-11-03T21:45:06.627Z,11.74
2023-11-03T21:47:34.883Z,11.75
2023-11-03T21:50:01.688Z,11.75
2023-11-03T21:52:28.537Z,11.75
2023-11-03T21:54:55.615Z,11.74
2023-11-03T21:57:22.373Z,11.69
2023-11-03T21:59:49.504Z,11.66
2023-11-03T22:02:16.156Z,11.68
2023-11-03T22:04:43.016Z,11.68
2023-11-03T22:07:11.295Z,11.64
2023-11-03T22:09:38.063Z,11.58
2023-11-03T22:12:04.956Z,11.54
2023-11-03T22:14:32.043Z,11.49
2023-11-03T22:16:58.713Z,11.44
2023-11-03T22:19:25.938Z,11.40
2023-11-03T22:21:52.842Z,11.35
2023-11-03T22:24:19.508Z,11.31
2023-11-03T22:26:47.833Z,11.28
2023-11-03T22:29:16.415Z,11.24
2023-11-03T22:31:45.119Z,11.24
2023-11-03T22:34:12.059Z,11.24
2023-11-03T22:36:38.874Z,11.21
2023-11-03T22:39:06.271Z,11.14
2023-11-03T22:41:33.222Z,11.07
2023-11-03T22:43:59.861Z,11.01
2023-11-03T22:46:27.147Z,10.91
2023-11-03T22:48:54.144Z,10.85
2023-11-03T22:51:20.972Z,10.81
2023-11-03T22:53:48.067Z,10.78
2023-11-03T22:56:22.234Z,10.69
2023-11-03T22:58:49.652Z,10.60
2023-11-03T23:01:16.850Z,10.53
2023-11-03T23:03:43.511Z,10.46
2023-11-03T23:06:12.898Z,10.37
2023-11-03T23:08:40.270Z,10.27
2023-11-03T23:11:07.509Z,10.16
2023-11-03T23:13:34.363Z,10.17
2023-11-03T23:16:01.056Z,10.17
2023-11-03T23:18:27.965Z,10.08
2023-11-03T23:20:54.801Z,10.04
2023-11-03T23:23:21.582Z,10.00
2023-11-03T23:25:50.133Z,9.95
2023-11-03T23:28:16.874Z,9.98
2023-11-03T23:30:44.098Z,10.03
2023-11-03T23:33:11.178Z,10.09
2023-11-03T23:35:37.936Z,10.13
2023-11-03T23:38:05.103Z,10.17
2023-11-03T23:40:31.764Z,10.17
2023-11-03T23:42:58.594Z,10.16
2023-11-03T23:45:25.689Z,10.17
2023-11-03T23:47:52.582Z,10.20
2023-11-03T23:50:19.352Z,10.23
2023-11-03T23:52:46.092Z,10.25
2023-11-03T23:55:12.959Z,10.29
2023-11-03T23:57:39.978Z,10.31
